Time;durP1;ratioP1;P1;durP2;ratioP2;P2;SDS_P1;SDS_P2;PMS_P1;PMS_P2;Temp;Humidity;BMP_temperature;BMP_pressure;BME280_temperature;BME280_humidity;BME280_pressure;Samples;Min_cycle;Max_cycle;Signal;HPM_P1;HPM_P2
2024/03/06 00:01:04;;;;;;;11.70;7.87;;;6.00;99.90;;;;;;5049210;28;20123;-74
2024/03/06 00:03:30;;;;;;;14.48;9.02;;;6.00;99.90;;;;;;5050254;28;20557;-74
2024/03/06 00:05:55;;;;;;;12.43;8.30;;;6.00;99.90;;;;;;5049792;28;20061;-74
2024/03/06 00:08:21;;;;;;;9.05;6.70;;;6.00;99.90;;;;;;5052809;28;20137;-74
2024/03/06 00:10:47;;;;;;;13.57;8.25;;;6.00;99.90;;;;;;5048449;28;20063;-74
2024/03/06 00:13:12;;;;;;;9.57;6.38;;;5.90;99.90;;;;;;5049360;28;20025;-74
2024/03/06 00:15:38;;;;;;;8.55;5.90;;;5.90;99.90;;;;;;5049745;28;20296;-74
2024/03/06 00:18:05;;;;;;;6.88;4.80;;;5.80;99.90;;;;;;5045571;28;20448;-73
2024/03/06 00:20:30;;;;;;;7.38;5.22;;;5.70;99.90;;;;;;5050520;28;20058;-75
2024/03/06 00:22:56;;;;;;;10.13;7.68;;;5.70;99.90;;;;;;5051169;28;20108;-76
2024/03/06 00:25:22;;;;;;;8.38;6.57;;;5.70;99.90;;;;;;5052424;28;20033;-74
2024/03/06 00:27:47;;;;;;;9.45;6.93;;;5.70;99.90;;;;;;5052217;28;20032;-74
2024/03/06 00:30:13;;;;;;;9.57;7.18;;;5.70;99.90;;;;;;5050496;28;20024;-73
2024/03/06 00:32:38;;;;;;;10.18;7.57;;;5.70;99.90;;;;;;5030646;28;20037;-74
2024/03/06 00:35:06;;;;;;;11.40;7.88;;;5.70;99.90;;;;;;5031646;28;20033;-73
2024/03/06 00:37:31;;;;;;;10.02;6.57;;;5.70;99.90;;;;;;5028490;28;20471;-75
2024/03/06 00:39:57;;;;;;;13.40;8.00;;;5.70;99.90;;;;;;5032749;28;20029;-74
2024/03/06 00:42:23;;;;;;;13.07;8.38;;;5.80;99.90;;;;;;5031502;28;20216;-74
2024/03/06 00:44:48;;;;;;;11.50;7.13;;;5.80;99.90;;;;;;5032010;28;20076;-74
2024/03/06 00:47:14;;;;;;;11.70;7.70;;;5.80;99.90;;;;;;5030925;28;20437;-74
2024/03/06 00:49:42;;;;;;;12.75;7.78;;;5.80;99.90;;;;;;5028611;28;20494;-73
2024/03/06 00:52:07;;;;;;;9.95;7.13;;;5.80;99.90;;;;;;5030958;28;20150;-74
2024/03/06 00:54:33;;;;;;;12.15;6.90;;;5.80;99.90;;;;;;5027901;28;20037;-73
2024/03/06 00:56:59;;;;;;;12.45;7.82;;;5.70;99.90;;;;;;5029715;28;20362;-73
2024/03/06 00:59:25;;;;;;;9.32;5.18;;;5.70;99.90;;;;;;5028223;28;20036;-74
2024/03/06 01:01:51;;;;;;;15.77;8.55;;;5.70;99.90;;;;;;5041937;28;20045;-73
2024/03/06 01:04:17;;;;;;;13.15;8.52;;;5.70;99.90;;;;;;5050632;28;20103;-73
2024/03/06 01:06:42;;;;;;;10.27;7.03;;;5.80;99.90;;;;;;5049896;28;20083;-74
2024/03/06 01:09:08;;;;;;;11.27;7.30;;;5.80;99.90;;;;;;5047908;28;20077;-74
2024/03/06 01:11:34;;;;;;;11.95;8.02;;;5.80;99.90;;;;;;5050949;28;20032;-74
2024/03/06 01:13:59;;;;;;;12.73;7.90;;;5.80;99.90;;;;;;5047564;28;20025;-74
2024/03/06 01:16:25;;;;;;;11.05;7.72;;;5.80;99.90;;;;;;5046651;28;20033;-73
2024/03/06 01:18:51;;;;;;;12.25;8.40;;;5.70;99.90;;;;;;5050612;28;20022;-74
2024/03/06 01:21:16;;;;;;;11.82;7.97;;;5.80;99.90;;;;;;5049844;28;20103;-74
2024/03/06 01:23:43;;;;;;;11.43;7.93;;;5.80;99.90;;;;;;5050873;28;20304;-74
2024/03/06 01:26:08;;;;;;;11.75;7.28;;;5.70;99.90;;;;;;5047409;28;20043;-74
2024/03/06 01:28:34;;;;;;;12.15;8.48;;;5.70;99.90;;;;;;5047776;28;20190;-74
2024/03/06 01:30:59;;;;;;;12.35;7.78;;;5.80;99.90;;;;;;5048108;28;20037;-74
2024/03/06 01:33:26;;;;;;;11.73;7.60;;;5.80;99.90;;;;;;5049425;28;20335;-74
2024/03/06 01:35:51;;;;;;;12.10;8.30;;;5.70;99.90;;;;;;5047470;28;20047;-73
2024/03/06 01:38:17;;;;;;;11.50;7.78;;;5.80;99.90;;;;;;5050391;28;20025;-74
2024/03/06 01:40:44;;;;;;;11.27;7.97;;;5.80;99.90;;;;;;5051100;28;20075;-74
2024/03/06 01:43:20;;;;;;;12.60;8.85;;;5.80;99.90;;;;;;5050845;28;20088;-73
2024/03/06 01:45:46;;;;;;;11.75;7.65;;;5.80;99.90;;;;;;5051141;28;20035;-73
2024/03/06 01:48:12;;;;;;;13.63;8.20;;;5.80;99.90;;;;;;5057727;28;20021;-74
2024/03/06 01:50:38;;;;;;;9.40;4.78;;;5.80;99.90;;;;;;5055100;28;20037;-73
2024/03/06 01:53:04;;;;;;;11.13;7.60;;;5.80;99.90;;;;;;5058870;28;20053;-74
2024/03/06 01:55:29;;;;;;;11.77;7.78;;;5.70;99.90;;;;;;5061877;28;20072;-76
2024/03/06 01:57:56;;;;;;;13.23;7.82;;;5.70;99.90;;;;;;5064571;28;20053;-73
2024/03/06 02:00:22;;;;;;;11.35;7.78;;;5.70;99.90;;;;;;5064100;28;20236;-73
2024/03/06 02:02:48;;;;;;;12.52;7.70;;;5.70;99.90;;;;;;5063069;28;20044;-72
2024/03/06 02:05:14;;;;;;;11.70;7.45;;;5.70;99.90;;;;;;5062940;28;20056;-72
2024/03/06 02:07:42;;;;;;;13.52;7.90;;;5.70;99.90;;;;;;5063589;28;20023;-73
2024/03/06 02:10:09;;;;;;;11.38;7.03;;;5.70;99.90;;;;;;5065647;28;20066;-74
2024/03/06 02:12:36;;;;;;;11.57;7.88;;;5.80;99.90;;;;;;5064826;28;20076;-73
2024/03/06 02:15:03;;;;;;;10.60;7.32;;;5.70;99.90;;;;;;5065164;28;20020;-73
2024/03/06 02:17:29;;;;;;;11.35;7.43;;;5.70;99.90;;;;;;5061489;28;20028;-73
2024/03/06 02:19:58;;;;;;;13.85;7.18;;;5.70;99.90;;;;;;5068685;28;20032;-72
2024/03/06 02:22:24;;;;;;;13.02;8.73;;;5.70;99.90;;;;;;5067366;28;20019;-72
2024/03/06 02:24:50;;;;;;;9.60;6.70;;;5.70;99.90;;;;;;5062726;28;20048;-73
2024/03/06 02:27:16;;;;;;;11.25;7.38;;;5.70;99.90;;;;;;5064662;28;20025;-73
2024/03/06 02:29:42;;;;;;;9.82;6.97;;;5.60;99.90;;;;;;5064596;28;20043;-73
2024/03/06 02:32:08;;;;;;;7.43;4.70;;;5.60;99.90;;;;;;5065182;28;20021;-73
2024/03/06 02:34:34;;;;;;;12.82;7.43;;;5.60;99.90;;;;;;5064079;28;20101;-74
2024/03/06 02:37:00;;;;;;;11.05;7.38;;;5.60;99.90;;;;;;5067409;28;20021;-73
2024/03/06 02:39:25;;;;;;;11.65;7.28;;;5.60;99.90;;;;;;5067208;28;20036;-73
2024/03/06 02:41:51;;;;;;;11.25;6.75;;;5.60;99.90;;;;;;5059483;28;20028;-72
2024/03/06 02:44:17;;;;;;;11.48;7.43;;;5.60;99.90;;;;;;5064160;28;20013;-74
2024/03/06 02:46:47;;;;;;;11.82;7.88;;;5.70;99.90;;;;;;5067555;28;20027;-73
2024/03/06 02:49:16;;;;;;;12.05;7.40;;;5.60;99.90;;;;;;5067060;28;20085;-72
2024/03/06 02:51:41;;;;;;;10.85;6.40;;;5.60;99.90;;;;;;5067878;28;20083;-75
2024/03/06 02:54:07;;;;;;;12.15;7.10;;;5.60;99.90;;;;;;5052879;28;20029;-76
2024/03/06 02:56:33;;;;;;;13.43;7.35;;;5.60;99.90;;;;;;5051078;28;20085;-75
2024/03/06 02:59:02;;;;;;;12.57;7.40;;;5.60;99.90;;;;;;5051988;28;20379;-73
2024/03/06 03:01:28;;;;;;;14.48;6.68;;;5.60;99.90;;;;;;5052970;28;20033;-74
2024/03/06 03:03:53;;;;;;;11.55;6.38;;;5.50;99.90;;;;;;5056885;28;20048;-75
2024/03/06 03:06:19;;;;;;;11.02;6.30;;;5.50;99.90;;;;;;5055124;28;20055;-74
2024/03/06 03:08:45;;;;;;;9.50;5.80;;;5.50;99.90;;;;;;5055236;28;20025;-74
2024/03/06 03:11:10;;;;;;;10.35;6.22;;;5.60;99.90;;;;;;5058063;28;20025;-74
2024/03/06 03:13:36;;;;;;;10.57;6.68;;;5.50;99.90;;;;;;5054365;28;20032;-74
2024/03/06 03:16:04;;;;;;;10.73;6.38;;;5.60;99.90;;;;;;5060981;28;20396;-74
2024/03/06 03:18:29;;;;;;;8.87;6.30;;;5.50;99.90;;;;;;5055605;28;20052;-75
2024/03/06 03:20:55;;;;;;;10.38;6.00;;;5.60;99.90;;;;;;5058293;28;20029;-75
2024/03/06 03:23:24;;;;;;;9.13;6.40;;;5.60;99.90;;;;;;5057463;28;20093;-75
2024/03/06 03:25:50;;;;;;;10.13;6.28;;;5.60;99.90;;;;;;5058306;28;20045;-74
2024/03/06 03:28:16;;;;;;;8.00;6.20;;;5.60;99.90;;;;;;5057834;28;20033;-74
2024/03/06 03:30:44;;;;;;;9.07;5.78;;;5.60;99.90;;;;;;5037351;28;20033;-75
2024/03/06 03:33:10;;;;;;;8.85;5.57;;;5.60;99.90;;;;;;5053590;28;20063;-73
2024/03/06 03:35:36;;;;;;;10.93;6.00;;;5.60;99.90;;;;;;5058270;28;20033;-73
2024/03/06 03:38:01;;;;;;;8.80;6.25;;;5.60;99.90;;;;;;5059624;28;20094;-74
2024/03/06 03:40:27;;;;;;;9.15;5.97;;;5.70;99.90;;;;;;5058008;28;20111;-75
2024/03/06 03:42:52;;;;;;;8.77;6.45;;;5.60;99.90;;;;;;5057589;28;20048;-77
2024/03/06 03:45:20;;;;;;;9.18;6.00;;;5.70;99.90;;;;;;5048108;28;20037;-73
2024/03/06 03:47:45;;;;;;;9.13;5.93;;;5.70;99.90;;;;;;5055205;28;20017;-74
2024/03/06 03:50:11;;;;;;;9.27;6.07;;;5.70;99.90;;;;;;5056115;28;20021;-74
2024/03/06 03:52:41;;;;;;;9.80;5.68;;;5.70;99.90;;;;;;5053019;28;20067;-74
2024/03/06 03:55:07;;;;;;;10.07;6.50;;;5.70;99.90;;;;;;5058831;28;20447;-73
2024/03/06 03:57:33;;;;;;;11.65;5.85;;;5.70;99.90;;;;;;5056764;28;20055;-73
2024/03/06 03:59:59;;;;;;;10.70;5.43;;;5.80;99.90;;;;;;5060736;28;20033;-74
2024/03/06 04:02:25;;;;;;;8.93;5.63;;;5.70;99.90;;;;;;5055303;28;20033;-74
2024/03/06 04:04:50;;;;;;;9.18;5.45;;;5.70;99.90;;;;;;5053055;28;20040;-75
2024/03/06 04:07:18;;;;;;;8.93;5.82;;;5.70;99.90;;;;;;5058314;28;20086;-74
2024/03/06 04:09:44;;;;;;;9.63;6.38;;;5.70;99.90;;;;;;5054740;28;20147;-74
2024/03/06 04:12:10;;;;;;;11.52;6.07;;;5.70;99.90;;;;;;5055381;28;20053;-74
2024/03/06 04:14:35;;;;;;;8.70;5.72;;;5.70;99.90;;;;;;5051776;28;20424;-74
2024/03/06 04:17:03;;;;;;;11.88;6.07;;;5.70;99.90;;;;;;5056073;28;20503;-75
2024/03/06 04:19:29;;;;;;;10.43;6.33;;;5.70;99.90;;;;;;5055884;28;20037;-76
2024/03/06 04:21:55;;;;;;;10.55;6.65;;;5.70;99.90;;;;;;5054046;28;20309;-74
2024/03/06 04:24:20;;;;;;;9.05;6.05;;;5.70;99.90;;;;;;5056995;28;20028;-74
2024/03/06 04:26:46;;;;;;;8.38;5.97;;;5.70;99.90;;;;;;5056107;28;20014;-74
2024/03/06 04:29:12;;;;;;;8.80;5.70;;;5.70;99.90;;;;;;5060439;28;20470;-75
2024/03/06 04:31:37;;;;;;;9.38;6.22;;;5.70;99.90;;;;;;5058930;28;20032;-75
2024/03/06 04:34:03;;;;;;;9.98;6.18;;;5.70;99.90;;;;;;5063574;28;20096;-74
2024/03/06 04:36:29;;;;;;;8.80;5.35;;;5.70;99.90;;;;;;5060298;28;20041;-74
2024/03/06 04:38:54;;;;;;;11.50;6.78;;;5.70;99.90;;;;;;5061558;28;20041;-74
2024/03/06 04:41:20;;;;;;;10.10;6.97;;;5.60;99.90;;;;;;5062151;28;20032;-74
2024/03/06 04:43:45;;;;;;;9.60;6.00;;;5.60;99.90;;;;;;5055885;28;20049;-74
2024/03/06 04:46:14;;;;;;;9.45;6.60;;;5.70;99.90;;;;;;5054242;28;20033;-74
2024/03/06 04:48:40;;;;;;;9.68;6.53;;;5.60;99.90;;;;;;5058507;28;20639;-75
2024/03/06 04:51:06;;;;;;;11.68;6.78;;;5.70;99.90;;;;;;5057867;28;20028;-74
2024/03/06 04:53:31;;;;;;;11.27;6.85;;;5.60;99.90;;;;;;5059693;28;20075;-77
2024/03/06 04:55:57;;;;;;;10.45;6.88;;;5.60;99.90;;;;;;5065048;28;20029;-74
2024/03/06 04:58:22;;;;;;;14.35;7.82;;;5.60;99.90;;;;;;5062852;28;20052;-74
2024/03/06 05:00:48;;;;;;;15.00;8.15;;;5.50;99.90;;;;;;5061743;28;20063;-74
2024/03/06 05:03:15;;;;;;;14.98;9.27;;;5.50;99.90;;;;;;5062248;28;20059;-75
2024/03/06 05:05:40;;;;;;;12.93;7.38;;;5.50;99.90;;;;;;5055777;28;20039;-72
2024/03/06 05:08:07;;;;;;;13.13;7.93;;;5.60;99.90;;;;;;5062550;28;20048;-74
2024/03/06 05:10:32;;;;;;;13.55;8.40;;;5.50;99.90;;;;;;5059611;28;20029;-74
2024/03/06 05:12:58;;;;;;;12.80;8.48;;;5.60;99.90;;;;;;5058678;28;20048;-74
2024/03/06 05:15:24;;;;;;;14.93;9.52;;;5.60;99.90;;;;;;5060464;28;20021;-74
2024/03/06 05:17:49;;;;;;;14.82;8.52;;;5.60;99.90;;;;;;5062769;28;20044;-75
2024/03/06 05:20:16;;;;;;;15.63;9.25;;;5.60;99.90;;;;;;5052342;28;20123;-74
2024/03/06 05:22:42;;;;;;;14.60;9.32;;;5.50;99.90;;;;;;5055832;28;20808;-74
2024/03/06 05:25:08;;;;;;;15.27;9.63;;;5.60;99.90;;;;;;5070456;28;20354;-75
2024/03/06 05:27:33;;;;;;;18.20;9.88;;;5.60;99.90;;;;;;5057309;28;20025;-74
2024/03/06 05:29:59;;;;;;;18.98;10.38;;;5.60;99.90;;;;;;5056886;28;20110;-74
2024/03/06 05:32:25;;;;;;;17.80;9.55;;;5.50;99.90;;;;;;5056822;28;20044;-74
2024/03/06 05:34:50;;;;;;;15.20;9.43;;;5.60;99.90;;;;;;5054111;28;20021;-75
2024/03/06 05:37:16;;;;;;;17.38;9.20;;;5.60;99.90;;;;;;5057918;28;20036;-75
2024/03/06 05:39:43;;;;;;;20.08;10.18;;;5.50;99.90;;;;;;5053441;28;20095;-74
2024/03/06 05:42:11;;;;;;;18.77;10.30;;;5.50;99.90;;;;;;5058518;28;20078;-74
2024/03/06 05:44:37;;;;;;;;;;;5.60;99.90;;;;;;5069216;28;20025;-75
2024/03/06 05:47:03;;;;;;;22.08;10.90;;;5.50;99.90;;;;;;5055439;28;19919;-74
2024/03/06 05:49:29;;;;;;;17.48;10.48;;;5.50;99.90;;;;;;5054591;28;20049;-74
2024/03/06 05:51:55;;;;;;;16.75;9.55;;;5.50;99.90;;;;;;5054291;28;20057;-75
2024/03/06 05:54:21;;;;;;;18.75;10.70;;;5.50;99.90;;;;;;5057363;28;20451;-75
2024/03/06 05:56:51;;;;;;;19.15;10.40;;;5.50;99.90;;;;;;5056187;28;20021;-75
2024/03/06 05:59:26;;;;;;;22.52;11.35;;;5.50;99.90;;;;;;5056214;28;20025;-76
2024/03/06 06:02:18;;;;;;;21.60;11.20;;;5.50;99.90;;;;;;5055217;28;20039;-76
2024/03/06 06:05:40;;;;;;;20.13;11.20;;;5.50;99.90;;;;;;5059365;28;20035;-74
2024/03/06 06:08:17;;;;;;;20.27;10.63;;;5.50;99.90;;;;;;5070143;28;20035;-74
2024/03/06 06:11:12;;;;;;;19.63;10.75;;;5.60;99.90;;;;;;5051842;28;20054;-74
2024/03/06 06:24:41;;;;;;;19.65;11.13;;;5.60;99.90;;;;;;5030863;28;20029;-75
2024/03/06 06:34:27;;;;;;;19.35;9.73;;;5.60;99.90;;;;;;5015986;28;20037;-73
2024/03/06 06:36:53;;;;;;;17.95;10.40;;;5.60;99.90;;;;;;5056100;28;20029;-74
2024/03/06 06:39:19;;;;;;;26.75;11.68;;;5.60;99.90;;;;;;5050344;28;20033;-73
2024/03/06 06:41:45;;;;;;;21.45;10.38;;;5.60;99.90;;;;;;5045492;28;20060;-74
2024/03/06 06:44:11;;;;;;;21.17;10.68;;;5.60;99.90;;;;;;5050623;28;20025;-74
2024/03/06 06:46:36;;;;;;;26.48;12.00;;;5.60;99.90;;;;;;5053127;28;20462;-74
2024/03/06 06:49:03;;;;;;;24.35;11.65;;;5.60;99.90;;;;;;5051709;28;20018;-75
2024/03/06 06:51:28;;;;;;;23.05;11.32;;;5.60;99.90;;;;;;5051687;28;20514;-74
2024/03/06 06:53:55;;;;;;;22.08;11.05;;;5.60;99.90;;;;;;5045927;28;20033;-74
2024/03/06 06:56:23;;;;;;;20.10;10.68;;;5.60;99.90;;;;;;5050840;28;20028;-74
2024/03/06 06:58:49;;;;;;;21.08;10.43;;;5.60;99.90;;;;;;5052067;28;20036;-74
2024/03/06 07:01:16;;;;;;;21.55;10.88;;;5.60;99.90;;;;;;5053911;28;20044;-74
2024/03/06 07:03:42;;;;;;;24.50;11.02;;;5.70;99.90;;;;;;5051406;28;20486;-74
2024/03/06 07:06:08;;;;;;;21.25;10.27;;;5.60;99.90;;;;;;5049528;28;20072;-74
2024/03/06 07:08:34;;;;;;;24.75;11.43;;;5.60;99.90;;;;;;5051755;28;20032;-74
2024/03/06 07:10:59;;;;;;;22.73;11.10;;;5.60;99.90;;;;;;5050668;28;20039;-73
2024/03/06 07:13:25;;;;;;;21.67;10.48;;;5.70;99.90;;;;;;5052731;28;20025;-74
2024/03/06 07:15:51;;;;;;;23.08;10.85;;;5.70;99.90;;;;;;5051999;28;20025;-74
2024/03/06 07:18:17;;;;;;;22.75;10.57;;;5.70;99.90;;;;;;5053327;28;20185;-75
2024/03/06 07:20:42;;;;;;;22.48;11.20;;;5.70;99.90;;;;;;5052664;28;20029;-76
2024/03/06 07:23:08;;;;;;;23.02;10.90;;;5.70;99.90;;;;;;5049541;28;20041;-74
2024/03/06 07:25:34;;;;;;;20.30;10.15;;;5.70;99.90;;;;;;5051496;28;20403;-74
2024/03/06 07:28:02;;;;;;;20.50;10.38;;;5.80;99.90;;;;;;5053833;28;20029;-74
2024/03/06 07:30:29;;;;;;;25.08;10.60;;;5.70;99.90;;;;;;5053158;28;20375;-75
2024/03/06 07:32:56;;;;;;;20.63;11.00;;;5.70;99.90;;;;;;5027046;28;20042;-75
2024/03/06 07:35:23;;;;;;;21.77;10.48;;;5.70;99.90;;;;;;5032098;28;20064;-75
2024/03/06 07:37:48;;;;;;;22.02;10.88;;;5.80;99.90;;;;;;5024958;28;20056;-74
2024/03/06 07:40:14;;;;;;;21.42;9.93;;;5.80;99.90;;;;;;5025685;28;20029;-73
2024/03/06 07:42:40;;;;;;;21.48;10.65;;;5.80;99.90;;;;;;5033078;28;20034;-73
2024/03/06 07:45:09;;;;;;;19.10;8.95;;;5.80;99.90;;;;;;5030334;28;20064;-74
2024/03/06 07:47:37;;;;;;;22.60;11.55;;;5.80;99.90;;;;;;5032821;28;20033;-75
2024/03/06 07:50:07;;;;;;;21.85;10.38;;;5.80;99.90;;;;;;5031553;28;20025;-74
2024/03/06 07:52:32;;;;;;;24.80;11.38;;;5.80;99.90;;;;;;4995028;28;1114818;-77
2024/03/06 07:54:58;;;;;;;19.15;9.60;;;5.90;99.90;;;;;;5028905;28;20034;-73
2024/03/06 07:57:24;;;;;;;23.33;11.43;;;5.90;99.90;;;;;;5031532;28;20040;-75
2024/03/06 07:59:51;;;;;;;23.75;11.43;;;5.90;99.90;;;;;;5030158;28;20025;-74
2024/03/06 08:02:17;;;;;;;21.38;9.45;;;5.90;99.90;;;;;;5050155;28;20560;-74
2024/03/06 08:04:43;;;;;;;22.63;9.80;;;5.90;99.90;;;;;;5047195;28;20025;-74
2024/03/06 08:07:08;;;;;;;21.50;11.63;;;5.90;99.90;;;;;;5051273;28;20043;-74
2024/03/06 08:09:34;;;;;;;22.33;11.10;;;5.90;99.90;;;;;;5054047;28;20048;-74
2024/03/06 08:12:02;;;;;;;21.92;11.77;;;6.00;99.90;;;;;;5053278;28;20033;-74
2024/03/06 08:14:28;;;;;;;18.92;9.77;;;6.00;99.90;;;;;;5050199;28;20029;-73
2024/03/06 08:16:54;;;;;;;23.05;9.35;;;6.00;99.90;;;;;;5048473;28;20111;-74
2024/03/06 08:19:19;;;;;;;18.30;9.75;;;6.00;99.90;;;;;;5062084;28;20378;-73
2024/03/06 08:21:46;;;;;;;19.13;10.00;;;6.10;99.90;;;;;;5055332;28;20040;-75
2024/03/06 08:24:12;;;;;;;20.90;9.40;;;6.00;99.90;;;;;;5051760;28;20349;-75
2024/03/06 08:26:37;;;;;;;20.33;10.63;;;6.00;99.90;;;;;;5051944;28;20025;-74
2024/03/06 08:29:03;;;;;;;20.48;9.55;;;6.10;99.90;;;;;;5052055;28;20028;-74
2024/03/06 08:31:29;;;;;;;18.25;9.60;;;6.00;99.90;;;;;;5050549;28;20045;-74
2024/03/06 08:33:54;;;;;;;19.13;8.50;;;6.00;99.90;;;;;;5048416;28;20032;-75
2024/03/06 08:36:20;;;;;;;20.65;9.25;;;6.10;99.90;;;;;;5052148;28;20040;-74
2024/03/06 08:38:46;;;;;;;23.20;10.27;;;6.10;99.90;;;;;;5047628;28;20048;-75
2024/03/06 08:41:12;;;;;;;20.83;8.95;;;6.10;99.90;;;;;;5044690;28;20032;-74
2024/03/06 08:43:38;;;;;;;21.92;10.48;;;6.10;99.90;;;;;;5053857;28;20335;-74
2024/03/06 08:46:03;;;;;;;22.77;10.57;;;6.20;99.90;;;;;;5048869;28;20028;-75
2024/03/06 08:48:30;;;;;;;17.08;9.35;;;6.20;99.90;;;;;;5050493;28;20245;-73
2024/03/06 08:50:55;;;;;;;20.05;9.98;;;6.20;99.90;;;;;;5050757;28;20056;-75
2024/03/06 08:53:21;;;;;;;19.85;9.93;;;6.30;99.90;;;;;;5043272;28;20114;-75
2024/03/06 08:55:47;;;;;;;22.30;11.00;;;6.30;99.90;;;;;;5052088;28;20029;-74
2024/03/06 08:58:13;;;;;;;21.00;10.73;;;6.30;99.90;;;;;;5051212;28;20028;-76
2024/03/06 09:00:40;;;;;;;23.42;10.00;;;6.30;99.90;;;;;;5049285;28;20033;-73
2024/03/06 09:03:05;;;;;;;21.63;10.52;;;6.40;99.90;;;;;;5049845;28;20043;-74
2024/03/06 09:05:31;;;;;;;24.23;10.88;;;6.40;99.90;;;;;;5045315;28;20045;-74
2024/03/06 09:07:57;;;;;;;23.05;10.20;;;6.40;99.90;;;;;;5051816;28;20025;-74
2024/03/06 09:10:23;;;;;;;26.05;11.38;;;6.40;99.90;;;;;;5050882;28;20442;-74
2024/03/06 09:12:48;;;;;;;27.33;11.55;;;6.40;99.90;;;;;;5048833;28;20044;-73
2024/03/06 09:15:16;;;;;;;26.08;12.25;;;6.40;99.90;;;;;;5049793;28;20033;-74
2024/03/06 09:17:42;;;;;;;26.23;12.30;;;6.40;99.90;;;;;;5050180;28;20029;-74
2024/03/06 09:20:11;;;;;;;27.67;11.77;;;6.50;99.90;;;;;;5048271;28;20040;-74
2024/03/06 09:22:38;;;;;;;22.00;10.15;;;6.40;99.90;;;;;;5051172;28;20039;-74
2024/03/06 09:25:07;;;;;;;28.05;10.82;;;6.40;99.90;;;;;;5051579;28;20076;-74
2024/03/06 09:27:33;;;;;;;27.33;13.15;;;6.40;99.90;;;;;;5051139;28;20080;-74
2024/03/06 09:29:59;;;;;;;31.38;13.68;;;6.50;99.90;;;;;;5049824;28;20094;-73
2024/03/06 09:32:26;;;;;;;33.55;13.23;;;6.40;99.90;;;;;;5051421;28;20089;-74
2024/03/06 09:34:52;;;;;;;28.42;13.55;;;6.40;99.90;;;;;;5047833;28;20388;-73
2024/03/06 09:37:18;;;;;;;29.88;12.88;;;6.40;99.90;;;;;;5051089;28;20025;-73
2024/03/06 09:39:47;;;;;;;30.50;12.95;;;6.50;99.90;;;;;;5048535;28;20090;-73
2024/03/06 09:42:14;;;;;;;29.40;12.80;;;6.60;99.90;;;;;;5052838;28;20029;-74
2024/03/06 09:44:40;;;;;;;32.55;14.48;;;6.70;99.90;;;;;;5048410;28;20315;-73
2024/03/06 09:47:06;;;;;;;33.17;14.25;;;6.70;99.90;;;;;;5049736;28;20044;-73
2024/03/06 09:49:34;;;;;;;37.78;14.98;;;6.80;99.90;;;;;;5049252;28;20059;-74
2024/03/06 09:52:01;;;;;;;33.20;15.20;;;6.80;99.90;;;;;;5045700;28;20045;-73
2024/03/06 09:54:27;;;;;;;31.63;13.40;;;6.90;99.90;;;;;;5048675;28;20454;-73
2024/03/06 09:56:55;;;;;;;31.55;12.95;;;6.90;99.90;;;;;;5048885;28;20025;-74
2024/03/06 09:59:21;;;;;;;28.63;13.45;;;7.00;99.90;;;;;;5049387;28;20023;-74
2024/03/06 10:01:57;;;;;;;36.58;13.05;;;6.80;99.90;;;;;;5047778;28;20029;-74
2024/03/06 10:04:26;;;;;;;28.35;12.38;;;6.90;99.90;;;;;;5049137;28;20513;-74
2024/03/06 10:06:57;;;;;;;28.60;12.45;;;6.90;99.90;;;;;;5044487;28;20029;-73
2024/03/06 10:09:23;;;;;;;30.90;12.77;;;6.90;99.90;;;;;;5047433;28;20537;-73
2024/03/06 10:11:49;;;;;;;30.55;13.18;;;6.90;99.90;;;;;;5044017;28;20056;-74
2024/03/06 10:14:15;;;;;;;28.65;12.30;;;7.00;99.90;;;;;;5049940;28;20036;-74
2024/03/06 10:16:53;;;;;;;29.23;12.60;;;7.00;99.90;;;;;;5047717;28;20632;-74
2024/03/06 10:19:19;;;;;;;;;;;7.00;99.90;;;;;;5048159;28;20753;-73
2024/03/06 10:21:49;;;;;;;25.90;12.15;;;7.00;99.90;;;;;;5048146;28;19935;-76
2024/03/06 10:24:23;;;;;;;29.90;12.93;;;7.10;99.90;;;;;;5050354;28;20025;-75
2024/03/06 10:26:50;;;;;;;31.15;13.30;;;7.10;99.90;;;;;;5046629;28;20029;-74
2024/03/06 10:29:18;;;;;;;29.50;13.35;;;7.10;99.90;;;;;;5049642;28;20035;-74
2024/03/06 10:31:54;;;;;;;28.98;13.55;;;7.10;99.90;;;;;;5048311;28;20090;-75
2024/03/06 10:34:20;;;;;;;31.42;13.90;;;7.20;99.90;;;;;;5050257;28;20032;-73
2024/03/06 10:36:53;;;;;;;28.58;12.07;;;7.30;99.90;;;;;;5050081;28;20082;-74
2024/03/06 10:39:23;;;;;;;32.10;14.15;;;7.30;99.90;;;;;;5048942;28;20203;-73
2024/03/06 10:41:56;;;;;;;28.63;13.32;;;7.40;99.90;;;;;;5047490;28;20470;-75
2024/03/06 10:44:25;;;;;;;33.67;14.18;;;7.40;99.90;;;;;;5045806;28;20029;-74
2024/03/06 10:47:01;;;;;;;;;;;7.50;99.90;;;;;;5047222;28;20029;-75
2024/03/06 10:49:28;;;;;;;25.70;11.60;;;7.50;99.90;;;;;;5053576;28;19980;-75
2024/03/06 10:52:06;;;;;;;28.92;12.25;;;7.60;99.90;;;;;;5051632;28;20176;-73
2024/03/06 10:54:41;;;;;;;25.73;11.75;;;7.70;99.90;;;;;;5049003;28;20078;-75
2024/03/06 10:57:10;;;;;;;26.27;10.93;;;7.80;99.90;;;;;;5051363;28;20029;-74
2024/03/06 10:59:35;;;;;;;28.70;13.32;;;7.70;99.90;;;;;;5048291;28;20325;-74
2024/03/06 11:02:01;;;;;;;27.25;12.50;;;7.70;99.90;;;;;;5050395;28;20039;-74
2024/03/06 11:04:28;;;;;;;23.50;11.30;;;7.70;99.90;;;;;;5057163;28;20064;-77
2024/03/06 11:06:59;;;;;;;27.95;12.10;;;7.70;99.90;;;;;;5057675;28;20032;-75
2024/03/06 11:09:26;;;;;;;25.13;12.85;;;7.70;99.90;;;;;;5059521;28;20021;-73
2024/03/06 11:11:53;;;;;;;23.73;11.13;;;7.70;99.90;;;;;;5060120;28;20025;-76
2024/03/06 11:14:21;;;;;;;29.48;12.05;;;7.60;99.90;;;;;;5056450;28;20184;-73
2024/03/06 11:17:05;;;;;;;26.77;12.90;;;7.60;99.90;;;;;;5058991;28;20025;-75
2024/03/06 11:19:32;;;;;;;22.15;11.27;;;7.70;99.90;;;;;;5058653;28;20032;-73
2024/03/06 11:21:59;;;;;;;26.75;12.23;;;7.50;99.90;;;;;;5056458;28;20092;-73
2024/03/06 11:24:32;;;;;;;28.02;14.05;;;7.50;99.90;;;;;;5057654;28;20244;-77
2024/03/06 11:27:02;;;;;;;27.83;13.63;;;7.60;99.90;;;;;;5053512;28;20025;-74
2024/03/06 11:29:30;;;;;;;27.88;13.00;;;7.60;99.90;;;;;;5059820;28;20191;-76
2024/03/06 11:32:13;;;;;;;28.73;13.77;;;7.70;99.90;;;;;;5057837;28;20045;-77
2024/03/06 11:34:39;;;;;;;31.70;14.60;;;7.70;99.90;;;;;;5062173;28;20029;-80
2024/03/06 11:37:07;;;;;;;24.10;13.25;;;7.80;99.90;;;;;;5063149;28;20013;-75
2024/03/06 11:39:37;;;;;;;24.92;13.02;;;7.80;99.90;;;;;;5057574;28;20040;-77
2024/03/06 11:42:10;;;;;;;29.45;13.25;;;7.80;99.90;;;;;;5060933;28;20013;-76
2024/03/06 11:44:36;;;;;;;28.13;14.63;;;7.90;99.90;;;;;;5060504;28;20029;-74
2024/03/06 11:47:04;;;;;;;25.67;12.23;;;7.90;99.90;;;;;;5062062;28;20024;-77
2024/03/06 11:49:33;;;;;;;24.85;12.90;;;7.90;99.90;;;;;;5057360;28;20092;-73
2024/03/06 11:52:05;;;;;;;30.65;14.13;;;7.90;99.90;;;;;;5062986;28;20297;-73
2024/03/06 11:54:32;;;;;;;26.90;14.18;;;8.00;99.90;;;;;;5061680;28;20083;-76
2024/03/06 11:57:00;;;;;;;25.90;13.37;;;8.00;99.90;;;;;;5061833;28;20017;-73
2024/03/06 11:59:27;;;;;;;27.95;14.05;;;8.00;99.90;;;;;;5064070;28;20345;-76
2024/03/06 12:01:54;;;;;;;25.85;13.23;;;8.00;99.90;;;;;;5063768;28;20037;-74
2024/03/06 12:04:21;;;;;;;26.50;13.45;;;8.00;99.90;;;;;;5061712;28;20028;-73
2024/03/06 12:06:47;;;;;;;29.88;14.43;;;7.90;99.90;;;;;;5061545;28;20036;-76
2024/03/06 12:09:14;;;;;;;27.20;12.65;;;7.90;99.90;;;;;;5059592;28;20593;-73
2024/03/06 12:11:43;;;;;;;30.15;14.07;;;7.80;99.90;;;;;;5058782;28;20037;-77
2024/03/06 12:14:13;;;;;;;29.85;13.75;;;7.80;99.90;;;;;;5056272;28;20037;-75
2024/03/06 12:16:38;;;;;;;30.48;14.57;;;7.80;99.90;;;;;;5047169;28;20115;-75
2024/03/06 12:19:04;;;;;;;29.45;13.43;;;7.80;99.90;;;;;;5053358;28;20057;-75
2024/03/06 12:21:34;;;;;;;25.50;12.70;;;7.80;99.90;;;;;;5053320;28;20370;-75
2024/03/06 12:24:09;;;;;;;30.63;14.27;;;7.80;99.90;;;;;;5054660;28;20038;-75
2024/03/06 12:26:36;;;;;;;30.35;14.35;;;7.80;99.90;;;;;;5055088;28;20076;-75
2024/03/06 12:29:09;;;;;;;23.23;11.88;;;7.80;99.90;;;;;;5052754;28;20493;-74
2024/03/06 12:31:37;;;;;;;22.52;11.50;;;7.70;99.90;;;;;;5056956;28;20345;-74
2024/03/06 12:34:04;;;;;;;25.83;12.48;;;7.70;99.90;;;;;;5051185;28;20108;-73
2024/03/06 12:36:31;;;;;;;24.48;11.75;;;7.70;99.90;;;;;;5049622;28;20060;-75
2024/03/06 12:39:03;;;;;;;23.05;13.13;;;7.70;99.90;;;;;;5061932;28;20059;-75
2024/03/06 12:41:29;;;;;;;24.77;11.38;;;7.70;99.90;;;;;;5061843;28;20070;-75
2024/03/06 12:43:56;;;;;;;24.40;11.85;;;7.70;99.90;;;;;;5062213;28;20063;-74
2024/03/06 12:46:22;;;;;;;26.23;11.93;;;7.70;99.90;;;;;;5059074;28;20036;-75
2024/03/06 12:48:49;;;;;;;28.35;13.10;;;7.80;99.90;;;;;;5072060;28;20029;-75
2024/03/06 12:51:14;;;;;;;25.85;12.68;;;7.80;99.90;;;;;;5064552;28;20047;-75
2024/03/06 12:53:41;;;;;;;32.35;15.02;;;7.90;99.90;;;;;;5057592;28;20236;-74
2024/03/06 12:56:07;;;;;;;28.60;12.50;;;7.90;99.90;;;;;;5062328;28;20036;-74
2024/03/06 12:58:35;;;;;;;28.10;14.25;;;7.90;99.90;;;;;;5058266;28;20024;-75
2024/03/06 13:01:01;;;;;;;30.65;14.07;;;7.90;99.90;;;;;;5059130;28;20056;-74